Time;durP1;ratioP1;P1;durP2;ratioP2;P2;SDS_P1;SDS_P2;PMS_P1;PMS_P2;Temp;Humidity;BMP_temperature;BMP_pressure;BME280_temperature;BME280_humidity;BME280_pressure;Samples;Min_cycle;Max_cycle;Signal;HPM_P1;HPM_P2
2021/08/11 00:02:15;;;;;;;;;;;28.20;43.70;;;;;;5004073;28;87402;-56
2021/08/11 00:04:40;;;;;;;;;;;28.10;43.90;;;;;;4999674;28;88278;-54
2021/08/11 00:07:06;;;;;;;;;;;28.10;43.70;;;;;;4997794;28;89109;-54
2021/08/11 00:09:32;;;;;;;;;;;28.10;43.90;;;;;;4997990;28;88183;-56
2021/08/11 00:11:58;;;;;;;;;;;28.10;44.00;;;;;;4999834;28;89860;-53
2021/08/11 00:14:24;;;;;;;;;;;28.10;44.10;;;;;;4999776;28;88883;-56
2021/08/11 00:16:49;;;;;;;;;;;28.10;44.10;;;;;;5000708;28;87122;-56
2021/08/11 00:19:15;;;;;;;;;;;28.00;44.00;;;;;;5001870;28;87202;-59
2021/08/11 00:21:41;;;;;;;;;;;28.00;43.80;;;;;;5000709;28;88705;-59
2021/08/11 00:24:06;;;;;;;;;;;28.00;43.80;;;;;;5004654;28;87286;-55
2021/08/11 00:26:32;;;;;;;;;;;28.00;43.90;;;;;;4998828;28;88004;-54
2021/08/11 00:28:57;;;;;;;;;;;27.90;43.80;;;;;;4998027;28;87136;-56
2021/08/11 00:31:23;;;;;;;;;;;27.90;43.80;;;;;;4999459;28;87619;-56
2021/08/11 00:33:48;;;;;;;;;;;27.90;44.10;;;;;;4997887;28;88573;-55
2021/08/11 00:36:14;;;;;;;;;;;27.90;44.10;;;;;;4999334;28;87316;-55
2021/08/11 00:38:39;;;;;;;;;;;27.90;44.00;;;;;;5000670;28;87214;-58
2021/08/11 00:41:05;;;;;;;;;;;27.90;43.90;;;;;;5001229;28;89222;-62
2021/08/11 00:43:30;;;;;;;;;;;27.80;43.90;;;;;;5004357;28;87145;-56
2021/08/11 00:45:56;;;;;;;;;;;27.80;43.90;;;;;;5000206;28;89634;-55
2021/08/11 00:48:24;;;;;;;;;;;27.80;43.80;;;;;;5001098;28;87128;-55
2021/08/11 00:50:50;;;;;;;;;;;27.80;44.10;;;;;;4997461;28;87891;-55
2021/08/11 00:53:16;;;;;;;;;;;27.80;43.90;;;;;;5000765;28;88808;-57
2021/08/11 00:55:42;;;;;;;;;;;27.80;44.10;;;;;;5001635;28;88383;-56
2021/08/11 00:58:11;;;;;;;;;;;27.70;44.10;;;;;;5000812;28;88096;-57
2021/08/11 01:00:41;;;;;;;;;;;27.70;43.80;;;;;;5001536;28;88635;-54
2021/08/11 01:03:10;;;;;;;;;;;27.70;44.10;;;;;;5000433;28;87862;-54
2021/08/11 01:05:35;;;;;;;;;;;27.70;44.00;;;;;;5000519;28;87247;-54
2021/08/11 01:08:01;;;;;;;;;;;27.70;44.00;;;;;;4997229;28;87175;-55
2021/08/11 01:10:28;;;;;;;;;;;27.70;44.10;;;;;;4996869;28;88186;-52
2021/08/11 01:12:53;;;;;;;;;;;27.70;44.10;;;;;;4999849;28;88731;-52
2021/08/11 01:15:19;;;;;;;;;;;27.60;44.10;;;;;;4999192;28;87763;-56
2021/08/11 01:17:44;;;;;;;;;;;27.60;44.00;;;;;;4998606;28;88120;-57
2021/08/11 01:20:10;;;;;;;;;;;27.60;44.20;;;;;;4996740;28;89600;-53
2021/08/11 01:22:39;;;;;;;;;;;27.60;44.20;;;;;;4996554;28;89588;-55
2021/08/11 01:25:14;;;;;;;;;;;27.60;44.20;;;;;;4998623;28;88276;-57
2021/08/11 01:27:58;;;;;;;;;;;27.50;44.10;;;;;;5002013;28;87617;-55
2021/08/11 01:30:28;;;;;;;;;;;27.50;44.30;;;;;;5001061;28;88037;-57
2021/08/11 01:33:04;;;;;;;;;;;27.50;44.30;;;;;;4995958;28;89896;-54
2021/08/11 01:35:36;;;;;;;;;;;27.50;44.20;;;;;;4996545;28;87098;-54
2021/08/11 01:38:02;;;;;;;;;;;27.50;44.20;;;;;;5000576;28;87185;-56
2021/08/11 01:40:29;;;;;;;;;;;27.50;44.10;;;;;;4999993;28;87547;-54
2021/08/11 01:42:57;;;;;;;;;;;27.50;44.30;;;;;;4998269;28;87203;-56
2021/08/11 01:45:25;;;;;;;;;;;27.40;44.20;;;;;;4996328;28;87178;-56
2021/08/11 01:47:56;;;;;;;;;;;27.40;44.20;;;;;;4998601;28;90300;-57
2021/08/11 01:50:22;;;;;;;;;;;27.40;44.40;;;;;;5002486;28;87139;-57
2021/08/11 01:52:49;;;;;;;;;;;27.40;44.20;;;;;;4997900;28;87653;-53
2021/08/11 01:55:15;;;;;;;;;;;27.30;44.30;;;;;;4996234;28;87195;-53
2021/08/11 01:57:48;;;;;;;;;;;27.30;44.30;;;;;;4996145;28;88783;-55
2021/08/11 02:00:14;;;;;;;;;;;27.30;44.30;;;;;;4999836;28;89241;-57
2021/08/11 02:02:40;;;;;;;;;;;27.30;44.30;;;;;;4999665;28;88942;-55
2021/08/11 02:05:08;;;;;;;;;;;27.30;44.20;;;;;;4997735;28;88109;-56
2021/08/11 02:07:33;;;;;;;;;;;27.30;44.30;;;;;;4999700;28;88181;-57
2021/08/11 02:09:59;;;;;;;;;;;27.20;44.10;;;;;;4999465;28;88286;-56
2021/08/11 02:12:25;;;;;;;;;;;27.20;44.20;;;;;;5000657;28;88949;-53
2021/08/11 02:14:51;;;;;;;;;;;27.20;44.40;;;;;;4998229;28;88659;-54
2021/08/11 02:17:17;;;;;;;;;;;27.20;44.50;;;;;;4996888;28;88524;-52
2021/08/11 02:19:42;;;;;;;;;;;27.10;44.40;;;;;;4996181;28;87167;-54
2021/08/11 02:22:07;;;;;;;;;;;27.10;44.30;;;;;;4997912;28;87107;-56
2021/08/11 02:24:33;;;;;;;;;;;27.20;44.50;;;;;;4997535;28;87170;-55
2021/08/11 02:27:01;;;;;;;;;;;27.10;44.30;;;;;;4996401;28;88806;-53
2021/08/11 02:29:41;;;;;;;;;;;27.10;44.30;;;;;;4999833;28;86495;-54
2021/08/11 02:32:27;;;;;;;;;;;27.10;44.40;;;;;;5000604;28;87364;-54
2021/08/11 02:34:55;;;;;;;;;;;27.10;44.30;;;;;;4991956;28;88719;-52
2021/08/11 02:37:37;;;;;;;;;;;27.00;44.30;;;;;;4998361;28;88050;-57
2021/08/11 02:40:05;;;;;;;;;;;26.90;44.40;;;;;;4997534;28;91082;-56
2021/08/11 02:42:33;;;;;;;;;;;27.00;44.60;;;;;;4995300;28;88611;-56
2021/08/11 02:45:00;;;;;;;;;;;26.90;44.40;;;;;;4999811;28;90268;-54
2021/08/11 02:47:26;;;;;;;;;;;26.90;44.70;;;;;;4999713;28;88929;-56
2021/08/11 02:49:52;;;;;;;;;;;26.90;44.40;;;;;;5000883;28;87188;-56
2021/08/11 02:52:19;;;;;;;;;;;26.90;44.70;;;;;;5000839;28;87800;-57
2021/08/11 02:54:45;;;;;;;;;;;26.90;44.60;;;;;;5003912;28;88997;-56
2021/08/11 02:57:11;;;;;;;;;;;26.90;44.50;;;;;;5001046;28;88917;-55
2021/08/11 02:59:38;;;;;;;;;;;26.90;44.50;;;;;;5001027;28;89210;-54
2021/08/11 03:02:03;;;;;;;;;;;26.80;44.50;;;;;;5000592;28;88083;-55
2021/08/11 03:04:29;;;;;;;;;;;26.90;44.70;;;;;;5000604;28;88489;-53
2021/08/11 03:06:55;;;;;;;;;;;26.80;44.60;;;;;;5000961;28;89236;-55
2021/08/11 03:09:21;;;;;;;;;;;26.90;44.70;;;;;;5002134;28;87107;-57
2021/08/11 03:11:47;;;;;;;;;;;26.80;44.60;;;;;;5002089;28;88571;-56
2021/08/11 03:14:14;;;;;;;;;;;26.80;44.70;;;;;;5000804;28;89385;-55
2021/08/11 03:16:40;;;;;;;;;;;26.80;44.60;;;;;;5001750;28;87161;-55
2021/08/11 03:19:06;;;;;;;;;;;26.70;44.70;;;;;;4998887;28;87456;-56
2021/08/11 03:21:32;;;;;;;;;;;26.70;44.70;;;;;;4999572;28;87147;-54
2021/08/11 03:23:57;;;;;;;;;;;26.70;44.70;;;;;;4998553;28;89000;-55
2021/08/11 03:26:23;;;;;;;;;;;26.70;44.70;;;;;;4998279;28;89190;-56
2021/08/11 03:28:48;;;;;;;;;;;26.60;44.60;;;;;;5000001;28;87150;-56
2021/08/11 03:31:14;;;;;;;;;;;26.70;44.70;;;;;;4999343;28;87205;-55
2021/08/11 03:33:39;;;;;;;;;;;26.60;44.70;;;;;;4998331;28;88105;-53
2021/08/11 03:36:05;;;;;;;;;;;26.70;44.70;;;;;;4998764;28;87465;-55
2021/08/11 03:38:30;;;;;;;;;;;26.60;44.70;;;;;;5003645;28;89628;-57
2021/08/11 03:40:56;;;;;;;;;;;26.60;44.90;;;;;;5000269;28;88149;-53
2021/08/11 03:43:21;;;;;;;;;;;26.60;44.80;;;;;;4998960;28;87749;-55
2021/08/11 03:45:47;;;;;;;;;;;26.50;44.70;;;;;;4998927;28;90040;-56
2021/08/11 03:48:12;;;;;;;;;;;26.50;44.90;;;;;;5000296;28;87196;-55
2021/08/11 03:50:38;;;;;;;;;;;26.50;44.60;;;;;;5000458;28;89236;-56
2021/08/11 03:53:03;;;;;;;;;;;26.50;44.90;;;;;;5001157;28;87618;-53
2021/08/11 03:55:32;;;;;;;;;;;26.50;44.90;;;;;;5000888;28;87152;-54
2021/08/11 03:57:58;;;;;;;;;;;26.50;44.90;;;;;;4998290;28;89047;-55
2021/08/11 04:00:23;;;;;;;;;;;26.40;45.00;;;;;;5001764;28;88298;-55
2021/08/11 04:02:49;;;;;;;;;;;26.40;44.90;;;;;;5000353;28;87318;-53
2021/08/11 04:05:14;;;;;;;;;;;26.40;44.90;;;;;;5000957;28;87950;-56
2021/08/11 04:07:40;;;;;;;;;;;26.40;44.90;;;;;;5002637;28;86443;-55
2021/08/11 04:10:07;;;;;;;;;;;26.30;45.00;;;;;;4998984;28;88184;-52
2021/08/11 04:12:33;;;;;;;;;;;26.40;45.20;;;;;;5000776;28;89611;-55
2021/08/11 04:14:58;;;;;;;;;;;26.40;45.10;;;;;;4998694;28;89065;-53
2021/08/11 04:17:24;;;;;;;;;;;26.30;45.10;;;;;;4998758;28;88255;-54
2021/08/11 04:19:50;;;;;;;;;;;26.30;45.20;;;;;;4997172;28;90719;-55
2021/08/11 04:22:16;;;;;;;;;;;26.30;45.00;;;;;;5001600;28;87207;-55
2021/08/11 04:24:41;;;;;;;;;;;26.30;45.20;;;;;;4999372;28;89488;-55
2021/08/11 04:27:07;;;;;;;;;;;26.30;45.10;;;;;;5000918;28;87144;-56
2021/08/11 04:29:32;;;;;;;;;;;26.30;45.20;;;;;;5002006;28;87700;-53
2021/08/11 04:31:57;;;;;;;;;;;26.20;45.10;;;;;;4999005;28;87452;-56
2021/08/11 04:34:23;;;;;;;;;;;26.20;45.30;;;;;;4998104;28;87103;-54
2021/08/11 04:36:49;;;;;;;;;;;26.20;45.00;;;;;;4998131;28;88906;-55
2021/08/11 04:39:14;;;;;;;;;;;26.10;45.20;;;;;;4997876;28;88075;-54
2021/08/11 04:41:40;;;;;;;;;;;26.20;45.30;;;;;;4999422;28;87106;-55
2021/08/11 04:44:10;;;;;;;;;;;26.10;45.10;;;;;;5002605;28;87506;-53
2021/08/11 04:46:36;;;;;;;;;;;26.10;45.20;;;;;;5001333;28;87152;-57
2021/08/11 04:49:02;;;;;;;;;;;26.10;45.30;;;;;;4999481;28;87219;-55
2021/08/11 04:51:27;;;;;;;;;;;26.10;45.40;;;;;;5000143;28;88013;-56
2021/08/11 04:53:53;;;;;;;;;;;26.10;45.40;;;;;;5001811;28;87270;-59
2021/08/11 04:56:19;;;;;;;;;;;26.10;45.40;;;;;;5000994;28;88989;-59
2021/08/11 04:58:44;;;;;;;;;;;26.10;45.40;;;;;;5000225;28;89855;-56
2021/08/11 05:01:10;;;;;;;;;;;26.10;45.40;;;;;;4997459;28;87230;-56
2021/08/11 05:03:36;;;;;;;;;;;26.10;45.40;;;;;;4999586;28;88122;-55
2021/08/11 05:06:02;;;;;;;;;;;26.00;45.50;;;;;;4998537;28;87154;-56
2021/08/11 05:08:28;;;;;;;;;;;26.00;45.40;;;;;;4997612;28;88815;-55
2021/08/11 05:10:53;;;;;;;;;;;26.00;45.30;;;;;;4996960;28;88509;-55
2021/08/11 05:13:19;;;;;;;;;;;26.00;45.50;;;;;;4998364;28;87246;-55
2021/08/11 05:15:44;;;;;;;;;;;26.00;45.60;;;;;;4999553;28;87104;-54
2021/08/11 05:18:11;;;;;;;;;;;26.00;45.60;;;;;;5000440;28;88021;-57
2021/08/11 05:20:37;;;;;;;;;;;26.00;45.70;;;;;;5000133;28;86417;-57
2021/08/11 05:23:03;;;;;;;;;;;25.90;45.70;;;;;;4999388;28;87188;-55
2021/08/11 05:25:28;;;;;;;;;;;25.90;45.70;;;;;;5003069;28;88346;-56
2021/08/11 05:27:54;;;;;;;;;;;25.90;45.70;;;;;;5000687;28;88209;-56
2021/08/11 05:30:19;;;;;;;;;;;25.90;45.70;;;;;;5000474;28;88643;-58
2021/08/11 05:32:45;;;;;;;;;;;25.90;45.80;;;;;;5000084;28;87282;-55
2021/08/11 05:35:10;;;;;;;;;;;25.90;45.90;;;;;;4999209;28;88793;-56
2021/08/11 05:37:36;;;;;;;;;;;25.90;46.00;;;;;;4999328;28;87995;-56
2021/08/11 05:40:02;;;;;;;;;;;25.90;46.30;;;;;;4998944;28;87129;-61
2021/08/11 05:42:28;;;;;;;;;;;25.90;46.10;;;;;;4998660;28;88377;-54
2021/08/11 05:44:53;;;;;;;;;;;25.90;46.10;;;;;;4998131;28;87871;-56
2021/08/11 05:47:19;;;;;;;;;;;25.80;46.10;;;;;;5000123;28;87278;-55
2021/08/11 05:49:44;;;;;;;;;;;25.80;46.10;;;;;;4995996;28;88430;-55
2021/08/11 05:52:10;;;;;;;;;;;25.80;46.10;;;;;;4995474;28;89283;-56
2021/08/11 05:54:36;;;;;;;;;;;25.80;46.20;;;;;;4999414;28;89433;-55
2021/08/11 05:57:02;;;;;;;;;;;25.80;46.20;;;;;;4997578;28;88181;-55
2021/08/11 05:59:28;;;;;;;;;;;25.80;46.20;;;;;;4997943;28;87129;-55
2021/08/11 06:01:54;;;;;;;;;;;25.80;46.20;;;;;;4999395;28;88563;-56
2021/08/11 06:04:22;;;;;;;;;;;25.80;46.10;;;;;;4996053;28;87551;-56
2021/08/11 06:06:47;;;;;;;;;;;25.80;46.20;;;;;;4998733;28;87103;-56
2021/08/11 06:09:13;;;;;;;;;;;25.80;46.20;;;;;;5002049;28;87564;-56
2021/08/11 06:11:38;;;;;;;;;;;25.80;46.30;;;;;;4996234;28;87162;-55
2021/08/11 06:14:04;;;;;;;;;;;25.80;46.30;;;;;;4997345;28;87647;-54
2021/08/11 06:16:29;;;;;;;;;;;25.70;46.30;;;;;;4998144;28;88602;-56
2021/08/11 06:18:57;;;;;;;;;;;25.70;46.30;;;;;;4996570;28;87150;-56
2021/08/11 06:21:23;;;;;;;;;;;25.70;46.30;;;;;;4998227;28;89504;-56
2021/08/11 06:23:51;;;;;;;;;;;25.70;46.30;;;;;;4998685;28;88025;-56
2021/08/11 06:26:17;;;;;;;;;;;25.80;46.40;;;;;;4999117;28;87154;-56
2021/08/11 06:28:42;;;;;;;;;;;25.80;46.30;;;;;;4997073;28;88006;-56
2021/08/11 06:31:08;;;;;;;;;;;25.80;46.40;;;;;;5001842;28;88428;-59
2021/08/11 06:33:33;;;;;;;;;;;25.80;46.40;;;;;;4997760;28;89052;-54
2021/08/11 06:35:59;;;;;;;;;;;25.70;46.40;;;;;;4998172;28;89495;-58
2021/08/11 06:38:24;;;;;;;;;;;25.80;46.50;;;;;;4997941;28;87111;-54
2021/08/11 06:40:50;;;;;;;;;;;25.80;46.60;;;;;;4997485;28;88154;-56
2021/08/11 06:43:15;;;;;;;;;;;25.80;46.60;;;;;;4997739;28;87881;-56
2021/08/11 06:45:41;;;;;;;;;;;25.80;46.60;;;;;;4997579;28;87143;-53
2021/08/11 06:48:07;;;;;;;;;;;25.70;46.50;;;;;;4999297;28;89005;-54
2021/08/11 06:50:32;;;;;;;;;;;25.80;46.50;;;;;;4996724;28;87595;-56
2021/08/11 06:52:58;;;;;;;;;;;25.70;46.60;;;;;;5001778;28;87283;-55
2021/08/11 06:55:23;;;;;;;;;;;25.70;46.60;;;;;;4996689;28;89378;-54
2021/08/11 06:57:50;;;;;;;;;;;25.70;46.60;;;;;;4998958;28;86449;-56
2021/08/11 07:00:16;;;;;;;;;;;25.70;46.70;;;;;;4998840;28;87578;-54
2021/08/11 07:02:41;;;;;;;;;;;25.70;46.60;;;;;;4996418;28;89763;-56
2021/08/11 07:05:07;;;;;;;;;;;25.80;46.70;;;;;;4996540;28;88087;-56
2021/08/11 07:07:33;;;;;;;;;;;25.70;46.70;;;;;;4996277;28;89702;-54
2021/08/11 07:09:59;;;;;;;;;;;25.80;46.80;;;;;;4998640;28;88125;-55
2021/08/11 07:12:24;;;;;;;;;;;25.70;46.70;;;;;;4999790;28;87454;-54
2021/08/11 07:14:50;;;;;;;;;;;25.70;46.80;;;;;;4997750;28;88595;-54
2021/08/11 07:17:16;;;;;;;;;;;25.70;46.80;;;;;;4997493;28;88713;-52
2021/08/11 07:19:41;;;;;;;;;;;25.80;46.80;;;;;;4996865;28;89310;-53
2021/08/11 07:22:08;;;;;;;;;;;25.70;46.80;;;;;;4998837;28;87621;-57
2021/08/11 07:24:34;;;;;;;;;;;25.70;46.80;;;;;;4998174;28;87179;-56
2021/08/11 07:26:59;;;;;;;;;;;25.80;46.90;;;;;;4996222;28;88694;-55
2021/08/11 07:29:25;;;;;;;;;;;25.70;46.80;;;;;;4997260;28;89475;-57
2021/08/11 07:31:50;;;;;;;;;;;25.70;46.80;;;;;;4999459;28;87132;-54
2021/08/11 07:34:17;;;;;;;;;;;25.70;46.90;;;;;;5002862;28;88901;-53
2021/08/11 07:36:43;;;;;;;;;;;25.70;47.00;;;;;;4998687;28;87204;-55
2021/08/11 07:39:08;;;;;;;;;;;25.70;47.00;;;;;;5001679;28;87210;-58
2021/08/11 07:41:34;;;;;;;;;;;25.70;47.10;;;;;;4999967;28;88204;-56
2021/08/11 07:44:00;;;;;;;;;;;25.70;47.10;;;;;;5000756;28;87127;-55
2021/08/11 07:46:25;;;;;;;;;;;25.70;47.10;;;;;;5000286;28;88111;-56
2021/08/11 07:48:51;;;;;;;;;;;25.70;47.10;;;;;;5000358;28;91485;-56
2021/08/11 07:51:17;;;;;;;;;;;25.80;47.20;;;;;;5000507;28;87108;-53
2021/08/11 07:53:42;;;;;;;;;;;25.80;47.10;;;;;;4999392;28;88089;-55
2021/08/11 07:56:08;;;;;;;;;;;25.80;47.20;;;;;;5002754;28;89132;-53
2021/08/11 07:58:34;;;;;;;;;;;25.70;47.10;;;;;;5000667;28;87433;-53
2021/08/11 08:00:59;;;;;;;;;;;25.80;47.20;;;;;;5000210;28;88482;-56
2021/08/11 08:03:25;;;;;;;;;;;25.70;47.10;;;;;;5000102;28;87171;-56
2021/08/11 08:05:50;;;;;;;;;;;25.70;47.10;;;;;;5000795;28;88073;-54
2021/08/11 08:08:17;;;;;;;;;;;25.80;47.20;;;;;;4998848;28;87884;-55
2021/08/11 08:10:43;;;;;;;;;;;25.80;47.20;;;;;;5001619;28;86429;-58
2021/08/11 08:13:08;;;;;;;;;;;25.80;47.20;;;;;;4999798;28;88377;-56
2021/08/11 08:15:34;;;;;;;;;;;25.80;47.20;;;;;;4997153;28;89385;-56
2021/08/11 08:17:59;;;;;;;;;;;25.80;47.20;;;;;;5001285;28;88092;-56
2021/08/11 08:20:25;;;;;;;;;;;25.80;47.20;;;;;;5000412;28;89481;-55
2021/08/11 08:22:50;;;;;;;;;;;25.80;47.20;;;;;;4999719;28;88247;-53
2021/08/11 08:25:20;;;;;;;;;;;25.70;47.20;;;;;;5000332;28;87856;-55
2021/08/11 08:27:46;;;;;;;;;;;25.80;47.20;;;;;;4998324;28;89545;-54
2021/08/11 08:30:12;;;;;;;;;;;25.80;47.20;;;;;;5000376;28;87135;-55
2021/08/11 08:32:37;;;;;;;;;;;25.80;47.20;;;;;;4999587;28;88844;-54
2021/08/11 08:35:03;;;;;;;;;;;25.80;47.20;;;;;;4998539;28;87441;-55
2021/08/11 08:37:33;;;;;;;;;;;25.80;47.20;;;;;;4997649;28;87116;-53
2021/08/11 08:40:02;;;;;;;;;;;25.80;47.20;;;;;;5003635;28;87131;-57
2021/08/11 08:42:28;;;;;;;;;;;25.80;47.20;;;;;;4997902;28;88135;-56
2021/08/11 08:44:54;;;;;;;;;;;25.80;47.20;;;;;;5000302;28;89652;-53
2021/08/11 08:47:20;;;;;;;;;;;25.80;47.20;;;;;;4998110;28;88144;-51
2021/08/11 08:49:46;;;;;;;;;;;25.80;47.20;;;;;;4999871;28;87533;-54
2021/08/11 08:52:13;;;;;;;;;;;25.80;47.20;;;;;;5000103;28;88615;-54
2021/08/11 08:54:38;;;;;;;;;;;25.80;47.10;;;;;;4997962;28;89581;-54
2021/08/11 08:57:04;;;;;;;;;;;25.80;47.20;;;;;;4999529;28;87194;-55
2021/08/11 08:59:30;;;;;;;;;;;25.80;47.20;;;;;;5002006;28;87776;-52
2021/08/11 09:01:55;;;;;;;;;;;25.80;47.10;;;;;;4999817;28;87130;-55
2021/08/11 09:04:20;;;;;;;;;;;25.80;47.10;;;;;;5001018;28;87536;-57
2021/08/11 09:06:46;;;;;;;;;;;25.80;47.10;;;;;;4998048;28;89132;-55
2021/08/11 09:09:12;;;;;;;;;;;25.90;47.10;;;;;;4999181;28;87122;-56
2021/08/11 09:11:39;;;;;;;;;;;25.90;47.10;;;;;;4998587;28;89036;-53
2021/08/11 09:14:23;;;;;;;;;;;25.90;47.10;;;;;;4997538;28;89952;-59
2021/08/11 09:16:52;;;;;;;;;;;25.90;47.10;;;;;;4997306;28;87226;-56
2021/08/11 09:19:19;;;;;;;;;;;25.90;47.10;;;;;;4998571;28;88895;-55
2021/08/11 09:21:56;;;;;;;;;;;25.90;47.10;;;;;;4999510;28;88609;-56
2021/08/11 09:24:22;;;;;;;;;;;25.90;47.10;;;;;;5000834;28;87736;-56
2021/08/11 09:26:47;;;;;;;;;;;25.90;47.00;;;;;;4998992;28;87910;-53
2021/08/11 09:29:13;;;;;;;;;;;25.90;47.10;;;;;;4998549;28;87205;-54
2021/08/11 09:31:38;;;;;;;;;;;26.00;47.30;;;;;;4997339;28;88478;-54
2021/08/11 09:34:06;;;;;;;;;;;26.00;47.30;;;;;;4996838;28;89766;-55
2021/08/11 09:36:42;;;;;;;;;;;26.00;47.10;;;;;;5001262;28;87259;-58
2021/08/11 09:39:08;;;;;;;;;;;26.00;47.00;;;;;;5000359;28;88820;-57
2021/08/11 09:41:34;;;;;;;;;;;26.00;46.80;;;;;;5000461;28;87939;-55
2021/08/11 09:44:09;;;;;;;;;;;26.00;46.70;;;;;;5002476;28;87121;-58
2021/08/11 09:46:35;;;;;;;;;;;26.00;46.70;;;;;;4998767;28;88863;-57
2021/08/11 09:49:00;;;;;;;;;;;26.00;46.50;;;;;;4998016;28;86444;-54
2021/08/11 09:51:26;;;;;;;;;;;26.10;46.90;;;;;;4997769;28;88611;-51
2021/08/11 09:53:52;;;;;;;;;;;26.10;46.90;;;;;;4996216;28;89208;-52
2021/08/11 09:56:17;;;;;;;;;;;26.10;46.90;;;;;;4997129;28;88107;-55
2021/08/11 09:58:45;;;;;;;;;;;26.10;46.10;;;;;;4997113;28;88864;-56
2021/08/11 10:01:14;;;;;;;;;;;26.10;46.20;;;;;;4999996;28;89575;-59
2021/08/11 10:04:00;;;;;;;;;;;26.20;46.50;;;;;;4997526;28;87143;-56
2021/08/11 10:06:26;;;;;;;;;;;26.10;46.30;;;;;;4999422;28;89346;-52
2021/08/11 10:08:52;;;;;;;;;;;26.20;46.50;;;;;;4995890;28;89044;-56
2021/08/11 10:11:34;;;;;;;;;;;26.20;46.50;;;;;;5000725;28;89410;-59
2021/08/11 10:13:59;;;;;;;;;;;26.20;46.60;;;;;;4999145;28;88754;-55
2021/08/11 10:16:25;;;;;;;;;;;26.20;46.00;;;;;;4998500;28;87184;-55
2021/08/11 10:18:50;;;;;;;;;;;26.30;46.50;;;;;;4997784;28;87386;-54
2021/08/11 10:21:16;;;;;;;;;;;26.20;46.40;;;;;;4996236;28;89425;-51
2021/08/11 10:23:42;;;;;;;;;;;26.30;46.50;;;;;;4997064;28;87150;-54
2021/08/11 10:26:07;;;;;;;;;;;26.30;46.60;;;;;;4997094;28;88140;-53
2021/08/11 10:28:33;;;;;;;;;;;26.30;46.50;;;;;;4999116;28;88199;-56
2021/08/11 10:30:59;;;;;;;;;;;26.30;46.60;;;;;;4996611;28;88984;-56
2021/08/11 10:33:25;;;;;;;;;;;26.30;46.40;;;;;;4998329;28;89456;-54
2021/08/11 10:35:51;;;;;;;;;;;26.30;46.30;;;;;;4999531;28;87127;-53
2021/08/11 10:38:17;;;;;;;;;;;26.30;46.10;;;;;;4999177;28;88905;-56
2021/08/11 10:40:48;;;;;;;;;;;26.40;46.40;;;;;;4998137;28;89760;-57
2021/08/11 10:43:14;;;;;;;;;;;26.40;46.20;;;;;;4997328;28;87124;-51
2021/08/11 10:45:41;;;;;;;;;;;26.40;46.20;;;;;;4996362;28;88105;-53
2021/08/11 10:48:13;;;;;;;;;;;26.40;46.40;;;;;;4997625;28;87690;-53
2021/08/11 10:50:43;;;;;;;;;;;26.40;46.20;;;;;;5002884;28;87277;-58
2021/08/11 10:53:09;;;;;;;;;;;26.40;45.90;;;;;;4996694;28;89717;-55
2021/08/11 10:55:45;;;;;;;;;;;26.50;46.10;;;;;;5000083;28;87159;-58
2021/08/11 10:58:10;;;;;;;;;;;26.50;46.20;;;;;;4998469;28;88753;-56
2021/08/11 11:00:39;;;;;;;;;;;26.50;45.60;;;;;;4996932;28;88813;-55
2021/08/11 11:03:04;;;;;;;;;;;26.50;45.70;;;;;;4999215;28;87204;-59
2021/08/11 11:05:33;;;;;;;;;;;26.50;45.80;;;;;;5001165;28;87107;-55
2021/08/11 11:08:12;;;;;;;;;;;26.50;45.40;;;;;;4998120;28;89486;-54
2021/08/11 11:10:38;;;;;;;;;;;26.60;45.70;;;;;;5002670;28;88058;-56
2021/08/11 11:13:31;;;;;;;;;;;26.60;45.90;;;;;;4998318;28;89272;-55
2021/08/11 11:15:57;;;;;;;;;;;26.60;46.10;;;;;;4985314;28;87298;-56
2021/08/11 11:18:23;;;;;;;;;;;26.60;45.90;;;;;;5000418;28;88747;-54
2021/08/11 11:20:57;;;;;;;;;;;26.60;45.50;;;;;;4999813;28;89736;-53
2021/08/11 11:23:52;;;;;;;;;;;26.60;45.40;;;;;;5000778;28;87188;-55
2021/08/11 11:26:30;;;;;;;;;;;26.60;45.50;;;;;;4993048;28;87312;-54
2021/08/11 11:28:57;;;;;;;;;;;26.60;45.50;;;;;;4998492;28;87620;-54
2021/08/11 11:31:32;;;;;;;;;;;26.70;45.10;;;;;;5002936;28;87143;-55
2021/08/11 11:34:18;;;;;;;;;;;26.70;45.30;;;;;;5004562;28;88980;-53
2021/08/11 11:37:04;;;;;;;;;;;26.70;45.40;;;;;;4992585;28;88167;-55
2021/08/11 11:39:30;;;;;;;;;;;26.70;45.40;;;;;;4993273;28;90072;-57
2021/08/11 11:44:57;;;;;;;;;;;26.80;45.20;;;;;;5001159;28;88411;-56
2021/08/11 11:47:35;;;;;;;;;;;26.80;45.30;;;;;;4998093;28;89152;-51
2021/08/11 11:50:19;;;;;;;;;;;26.80;44.60;;;;;;5001133;28;88690;-61
2021/08/11 11:52:54;;;;;;;;;;;27.20;39.90;;;;;;4998569;28;87134;-61
2021/08/11 11:55:29;;;;;;;;;;;27.70;35.80;;;;;;4998477;28;87229;-62
2021/08/11 11:57:55;;;;;;;;;;;27.90;34.70;;;;;;5000528;28;88193;-59
2021/08/11 12:00:21;;;;;;;;;;;28.00;34.60;;;;;;4998577;28;88882;-59
2021/08/11 12:02:50;;;;;;;;;;;27.90;36.60;;;;;;5000595;28;90484;-59
2021/08/11 12:05:16;;;;;;;;;;;27.70;37.50;;;;;;4998543;28;87153;-59
2021/08/11 12:07:42;;;;;;;;;;;27.50;38.80;;;;;;5002757;28;87716;-59
2021/08/11 12:10:08;;;;;;;;;;;27.60;37.50;;;;;;5001748;28;88565;-58
2021/08/11 12:12:33;;;;;;;;;;;27.50;38.70;;;;;;5002434;28;87197;-59
2021/08/11 12:15:18;;;;;;;;;;;27.40;39.10;;;;;;5000049;28;87103;-59
2021/08/11 12:17:44;;;;;;;;;;;27.30;39.00;;;;;;4996411;28;89593;-60
2021/08/11 12:20:36;;;;;;;;;;;27.30;39.60;;;;;;5003638;28;87342;-59
2021/08/11 12:23:14;;;;;;;;;;;27.40;39.00;;;;;;4999953;28;88175;-60
2021/08/11 12:25:40;;;;;;;;;;;27.30;39.20;;;;;;4998451;28;88733;-62
2021/08/11 12:28:09;;;;;;;;;;;27.30;39.70;;;;;;5000931;28;88740;-58
2021/08/11 12:30:36;;;;;;;;;;;27.40;39.90;;;;;;4997113;28;87584;-58
2021/08/11 12:33:02;;;;;;;;;;;27.40;38.60;;;;;;5001937;28;87132;-59
2021/08/11 12:35:27;;;;;;;;;;;27.50;38.70;;;;;;5000258;28;87777;-59
2021/08/11 12:37:53;;;;;;;;;;;27.50;39.40;;;;;;5000664;28;88626;-59
2021/08/11 12:40:31;;;;;;;;;;;27.50;39.60;;;;;;5001408;28;88576;-59
2021/08/11 12:42:57;;;;;;;;;;;27.40;40.00;;;;;;5001487;28;88720;-59
2021/08/11 12:45:23;;;;;;;;;;;27.50;40.30;;;;;;4998902;28;87517;-59
2021/08/11 12:47:49;;;;;;;;;;;27.40;40.10;;;;;;5001903;28;87758;-61
2021/08/11 12:50:19;;;;;;;;;;;27.80;37.10;;;;;;5000589;28;89664;-60
2021/08/11 12:52:54;;;;;;;;;;;28.20;36.30;;;;;;5000909;28;88124;-60
2021/08/11 12:55:30;;;;;;;;;;;28.30;35.90;;;;;;5001031;28;90013;-61
2021/08/11 12:57:55;;;;;;;;;;;28.40;35.30;;;;;;5001063;28;89613;-61
2021/08/11 13:00:37;;;;;;;;;;;28.40;36.00;;;;;;5000978;28;87085;-60
2021/08/11 13:03:03;;;;;;;;;;;28.40;35.20;;;;;;4998320;28;88738;-60
2021/08/11 13:05:28;;;;;;;;;;;28.50;35.40;;;;;;5000842;28;88142;-57
2021/08/11 13:08:01;;;;;;;;;;;28.50;36.30;;;;;;4997614;28;87325;-59
2021/08/11 13:10:28;;;;;;;;;;;28.50;35.90;;;;;;5001183;28;86463;-60
2021/08/11 13:12:54;;;;;;;;;;;28.60;35.70;;;;;;4998318;28;87128;-55
2021/08/11 13:15:27;;;;;;;;;;;28.60;35.70;;;;;;4998856;28;87656;-57
2021/08/11 13:17:53;;;;;;;;;;;28.80;35.90;;;;;;4986420;28;90341;-53
2021/08/11 13:20:20;;;;;;;;;;;28.70;36.10;;;;;;4990339;28;88180;-56
2021/08/11 13:22:47;;;;;;;;;;;28.60;38.10;;;;;;4999562;28;87167;-62
2021/08/11 13:25:13;;;;;;;;;;;28.70;37.10;;;;;;4981429;28;88937;-56
2021/08/11 13:27:39;;;;;;;;;;;28.70;37.50;;;;;;4976769;28;88322;-61
2021/08/11 13:30:05;;;;;;;;;;;28.70;37.30;;;;;;4976515;28;89250;-56
2021/08/11 13:32:32;;;;;;;;;;;28.70;36.60;;;;;;4978966;28;87517;-58
2021/08/11 13:34:58;;;;;;;;;;;28.80;37.10;;;;;;4981190;28;89384;-56
2021/08/11 13:37:23;;;;;;;;;;;28.80;37.10;;;;;;4995601;28;88498;-60
2021/08/11 13:39:49;;;;;;;;;;;28.80;37.40;;;;;;4997231;28;87136;-60
2021/08/11 13:42:14;;;;;;;;;;;28.80;36.60;;;;;;4996246;28;88064;-60
2021/08/11 13:44:40;;;;;;;;;;;28.90;36.20;;;;;;4995936;28;87142;-59
2021/08/11 13:47:05;;;;;;;;;;;28.90;35.70;;;;;;5001502;28;87141;-60
2021/08/11 13:49:31;;;;;;;;;;;28.70;36.70;;;;;;5000450;28;89445;-61
2021/08/11 13:51:56;;;;;;;;;;;28.60;36.60;;;;;;4998615;28;88234;-60
2021/08/11 13:54:23;;;;;;;;;;;28.60;36.70;;;;;;4996085;28;87178;-60
2021/08/11 13:56:51;;;;;;;;;;;28.70;36.40;;;;;;4996348;28;88097;-60
2021/08/11 13:59:17;;;;;;;;;;;28.80;36.40;;;;;;5000440;28;86496;-61
2021/08/11 14:01:43;;;;;;;;;;;28.70;36.20;;;;;;5000601;28;89015;-60
2021/08/11 14:04:08;;;;;;;;;;;28.70;35.80;;;;;;4996371;28;88667;-60
2021/08/11 14:06:34;;;;;;;;;;;28.90;35.60;;;;;;4995782;28;88202;-60
2021/08/11 14:09:01;;;;;;;;;;;28.90;35.50;;;;;;4998490;28;87153;-59
2021/08/11 14:11:27;;;;;;;;;;;29.00;35.90;;;;;;4997051;28;88804;-58
2021/08/11 14:13:52;;;;;;;;;;;29.00;36.10;;;;;;4978543;28;87370;-57
2021/08/11 14:16:18;;;;;;;;;;;29.00;37.30;;;;;;4977631;28;89453;-60
2021/08/11 14:18:44;;;;;;;;;;;29.00;37.40;;;;;;4979294;28;87143;-60
2021/08/11 14:21:09;;;;;;;;;;;29.10;36.90;;;;;;4979931;28;87677;-60